Alexis, Illinois
Current Conditions -  °F | °C
As of 5:15 AM on Tuesday 21 Oct 2014 (Local Time) from KGBG Reporting Station
Clear Clear  
Wind Chill: 35°   Ceiling: Unl
Heat Index: 35°   Visibility: 10mi
Dew Point: 35°   Wind: 3mph
Humidity: 99%   Direction: 360°N
Pressure: 30.09"   Gusts: NA
Location:  41.06°N, 90.56°W
Report Text: KGBG 211015Z AUTO 36003KT 10SM CLR 02/02 A3009 RMK AO2 T00170015
Loading
Personal Weather Stations






























Interactive Weather Map
Tropical Storm Tracking
New forecast layout! Learn more

10-Day Weather Forecast

Advertisements
Track Severe Weather on mobile